Lintong, China
Current Conditions -  °F | °C
As of 2:00 PM on Wednesday 22 Oct 2014 (Local Time) from ZLXY Reporting Station
Haze Haze  
Wind Chill: 61°   Ceiling: Unl
Heat Index: 61°   Visibility: 1.1mi
Dew Point: 54°   Wind: 2mph
Humidity: 77%   Direction: NA
Pressure: 30.15"   Gusts: NA
Location:  34.37°N, 109.2°E
Report Text: ZLXY 220600Z VRB01MPS 1800 BR NSC 16/12 Q1021 NOSIG
Loading
Personal Weather Stations






























Interactive Weather Map
Tropical Storm Tracking
New forecast layout! Learn more

10-Day Weather Forecast

Advertisements
Track Severe Weather on mobile